Time;durP1;ratioP1;P1;durP2;ratioP2;P2;SDS_P1;SDS_P2;PMS_P1;PMS_P2;Temp;Humidity;BMP_temperature;BMP_pressure;BME280_temperature;BME280_humidity;BME280_pressure;Samples;Min_cycle;Max_cycle;Signal;HPM_P1;HPM_P2
2024/04/20 00:02:39;;;;;;;3.40;1.00;;;;;;;9.51;56.51;97885.98;232546;203;137943;-53
2024/04/20 00:07:42;;;;;;;3.90;1.10;;;;;;;9.50;56.56;97881.97;232596;199;154677;-52
2024/04/20 00:12:46;;;;;;;1.90;1.10;;;;;;;9.51;56.64;97879.03;232690;206;138731;-52
2024/04/20 00:17:49;;;;;;;1.80;1.20;;;;;;;9.51;56.65;97873.77;232545;203;138461;-54
2024/04/20 00:22:52;;;;;;;1.50;1.10;;;;;;;9.50;56.64;97875.45;232472;203;152946;-53
2024/04/20 00:27:55;;;;;;;2.00;1.00;;;;;;;9.51;56.65;97875.72;232478;200;137353;-54
2024/04/20 00:32:58;;;;;;;1.20;0.90;;;;;;;9.54;56.57;97875.50;232589;206;137098;-53
2024/04/20 00:38:02;;;;;;;1.90;0.70;;;;;;;9.56;56.56;97876.07;232524;204;155324;-53
2024/04/20 00:43:05;;;;;;;1.10;0.70;;;;;;;9.52;56.68;97877.24;232686;203;138259;-52
2024/04/20 00:48:08;;;;;;;0.80;0.70;;;;;;;9.51;56.55;97877.86;232567;206;137844;-54
2024/04/20 00:53:14;;;;;;;0.80;0.70;;;;;;;9.48;56.50;97880.00;232529;199;153179;-54
2024/04/20 00:58:19;;;;;;;0.90;0.70;;;;;;;9.46;56.67;97878.86;232487;199;137435;-54
2024/04/20 01:03:26;;;;;;;0.90;0.70;;;;;;;9.48;56.73;97882.65;232480;206;138217;-54
2024/04/20 01:08:30;;;;;;;2.70;0.80;;;;;;;9.45;56.99;97883.73;232527;203;153513;-52
2024/04/20 01:13:33;;;;;;;0.40;0.40;;;;;;;9.43;57.23;97878.58;232476;204;137506;-52
2024/04/20 01:18:36;;;;;;;1.20;0.90;;;;;;;9.40;57.58;97879.34;232614;206;137397;-52
2024/04/20 01:23:39;;;;;;;1.60;0.60;;;;;;;9.36;58.10;97880.05;232537;200;153237;-52
2024/04/20 01:28:42;;;;;;;1.00;0.70;;;;;;;9.31;58.51;97883.05;232493;206;137813;-54
2024/04/20 01:33:45;;;;;;;0.90;0.70;;;;;;;9.30;58.67;97885.30;232529;204;137865;-53
2024/04/20 01:38:48;;;;;;;0.60;0.60;;;;;;;9.29;58.65;97892.06;232518;207;153099;-54
2024/04/20 01:43:51;;;;;;;0.80;0.60;;;;;;;9.27;58.65;97893.77;232574;206;138221;-53
2024/04/20 01:48:54;;;;;;;0.90;0.80;;;;;;;9.28;58.64;97895.90;232699;200;137588;-52
2024/04/20 01:53:57;;;;;;;3.10;0.70;;;;;;;9.30;58.59;97898.16;232616;204;153749;-53
2024/04/20 01:59:01;;;;;;;0.70;0.60;;;;;;;9.30;58.58;97898.33;232575;203;138134;-51
2024/04/20 02:04:04;;;;;;;0.40;0.40;;;;;;;9.29;58.87;97900.03;232443;207;137868;-53
2024/04/20 02:09:07;;;;;;;2.50;0.40;;;;;;;9.31;58.82;97904.30;232497;203;153784;-53
2024/04/20 02:14:10;;;;;;;0.40;0.40;;;;;;;9.31;58.64;97904.17;232423;206;138331;-53
2024/04/20 02:19:13;;;;;;;1.80;0.50;;;;;;;9.31;58.59;97908.54;232637;207;138040;-52
2024/04/20 02:24:16;;;;;;;0.50;0.40;;;;;;;9.31;58.61;97907.12;232492;206;153734;-53
2024/04/20 02:29:19;;;;;;;0.60;0.50;;;;;;;9.29;58.82;97907.44;232503;203;137832;-53
2024/04/20 02:34:22;;;;;;;0.40;0.30;;;;;;;9.26;59.07;97908.06;232514;204;137598;-53
2024/04/20 02:39:25;;;;;;;0.80;0.40;;;;;;;9.29;58.69;97910.10;232569;203;152880;-53
2024/04/20 02:44:29;;;;;;;0.60;0.40;;;;;;;9.32;58.71;97905.62;232453;206;138834;-54
2024/04/20 02:49:32;;;;;;;0.90;0.30;;;;;;;9.32;58.67;97908.11;232540;203;138220;-51
2024/04/20 02:54:35;;;;;;;0.40;0.40;;;;;;;9.33;58.53;97905.38;232710;203;154190;-53
2024/04/20 02:59:38;;;;;;;0.50;0.30;;;;;;;9.34;58.55;97906.20;232523;199;138303;-52
2024/04/20 03:04:41;;;;;;;0.50;0.40;;;;;;;9.35;58.61;97905.63;232498;203;137770;-52
2024/04/20 03:09:44;;;;;;;4.00;0.40;;;;;;;9.27;58.91;97909.35;232508;206;153474;-55
2024/04/20 03:14:50;;;;;;;1.00;0.40;;;;;;;9.24;58.88;97909.61;232503;204;142483;-55
2024/04/20 03:19:53;;;;;;;72.10;56.70;;;;;;;9.24;59.23;97912.77;232618;203;137520;-53
2024/04/20 03:24:56;;;;;;;225.90;181.00;;;;;;;9.30;59.62;97910.73;232663;206;153422;-54
2024/04/20 03:29:59;;;;;;;24.40;18.10;;;;;;;9.30;59.59;97910.07;232487;199;138508;-54
2024/04/20 03:35:05;;;;;;;40.40;27.60;;;;;;;9.29;59.75;97914.55;232509;203;138287;-53
2024/04/20 03:40:08;;;;;;;2.60;1.50;;;;;;;9.24;59.96;97917.89;232606;206;154056;-53
2024/04/20 03:45:11;;;;;;;0.50;0.40;;;;;;;9.22;60.34;97926.41;232565;206;138512;-55
2024/04/20 03:50:15;;;;;;;242.10;178.80;;;;;;;9.21;60.74;97929.45;232569;206;137778;-53
2024/04/20 03:55:18;;;;;;;25.20;15.40;;;;;;;9.17;61.29;97933.45;232751;203;153666;-53
2024/04/20 04:00:23;;;;;;;271.80;157.20;;;;;;;9.14;61.36;97936.70;232470;206;138663;-53
2024/04/20 04:05:26;;;;;;;21.80;13.70;;;;;;;9.14;61.77;97938.69;232471;207;137471;-53
2024/04/20 04:10:29;;;;;;;3.20;1.50;;;;;;;9.11;62.13;97943.69;232479;207;153889;-54
2024/04/20 04:15:31;;;;;;;1.10;0.60;;;;;;;9.08;62.32;97947.60;232500;207;138053;-54
2024/04/20 04:20:35;;;;;;;0.30;0.30;;;;;;;9.07;62.36;97952.10;232609;203;138314;-54
2024/04/20 04:25:38;;;;;;;1.30;0.30;;;;;;;9.08;62.47;97955.90;232583;203;153313;-53
2024/04/20 04:30:41;;;;;;;0.60;0.40;;;;;;;9.09;62.57;97960.43;232663;203;137807;-53
2024/04/20 04:35:43;;;;;;;0.20;0.20;;;;;;;9.06;63.12;97962.05;232485;204;138089;-53
2024/04/20 04:40:47;;;;;;;0.20;0.20;;;;;;;9.06;63.36;97962.20;232502;203;153273;-53
2024/04/20 04:45:51;;;;;;;1.50;0.40;;;;;;;9.08;63.92;97965.67;232548;206;137588;-53
2024/04/20 04:50:54;;;;;;;1.20;0.40;;;;;;;9.10;63.92;97971.10;232431;204;137763;-54
2024/04/20 04:55:57;;;;;;;0.90;0.50;;;;;;;9.15;63.81;97979.98;232488;199;153768;-53
2024/04/20 05:01:00;;;;;;;0.20;0.20;;;;;;;9.17;64.13;97984.60;232643;206;137037;-54
2024/04/20 05:06:03;;;;;;;0.80;0.30;;;;;;;9.19;64.08;97988.02;232634;206;138116;-53
2024/04/20 05:11:06;;;;;;;0.60;0.30;;;;;;;9.18;64.39;97994.82;232547;203;158520;-53
2024/04/20 05:16:09;;;;;;;0.90;0.40;;;;;;;9.21;64.34;97999.55;232458;203;138236;-53
2024/04/20 05:21:12;;;;;;;0.50;0.20;;;;;;;9.29;64.21;98005.52;232653;203;137964;-54
2024/04/20 05:26:15;;;;;;;0.60;0.30;;;;;;;9.38;64.28;98009.97;232553;207;154218;-51
2024/04/20 05:31:18;;;;;;;2.40;0.30;;;;;;;9.48;64.03;98013.08;232685;206;138321;-53
2024/04/20 05:36:21;;;;;;;0.20;0.20;;;;;;;9.56;63.56;98014.49;232603;203;137383;-52
2024/04/20 05:41:24;;;;;;;1.70;0.20;;;;;;;9.60;63.46;98020.86;232530;204;153776;-52
2024/04/20 05:46:27;;;;;;;0.70;0.20;;;;;;;9.62;63.72;98022.38;232523;204;248867;-54
2024/04/20 05:51:30;;;;;;;1.90;0.80;;;;;;;9.60;63.87;98027.13;232577;206;138043;-54
2024/04/20 05:56:33;;;;;;;1.80;0.30;;;;;;;9.62;63.66;98023.58;232444;207;153943;-54
2024/04/20 06:01:36;;;;;;;1.10;0.30;;;;;;;9.63;63.64;98029.02;232495;206;141807;-54
2024/04/20 06:06:39;;;;;;;0.30;0.30;;;;;;;9.70;63.65;98031.67;232764;204;137110;-52
2024/04/20 06:11:44;;;;;;;0.20;0.20;;;;;;;9.77;63.65;98034.14;232519;206;153919;-52
2024/04/20 06:16:47;;;;;;;0.20;0.20;;;;;;;9.81;64.08;98036.16;232376;204;142056;-51
2024/04/20 06:21:50;;;;;;;0.40;0.20;;;;;;;9.95;64.07;98042.04;232465;203;138220;-53
2024/04/20 06:26:53;;;;;;;0.20;0.20;;;;;;;10.02;62.98;98043.29;232533;206;154187;-54
2024/04/20 06:31:56;;;;;;;94.40;75.90;;;;;;;10.08;62.63;98044.59;232460;204;137964;-54
2024/04/20 06:36:59;;;;;;;56.70;44.90;;;;;;;10.17;62.90;98051.89;232593;206;139317;-54
2024/04/20 06:42:06;;;;;;;3.30;1.60;;;;;;;10.24;61.65;98054.58;232555;203;153905;-53
2024/04/20 06:47:09;;;;;;;484.90;397.40;;;;;;;10.29;61.06;98057.23;232435;203;141443;-53
2024/04/20 06:52:13;;;;;;;412.40;337.50;;;;;;;10.31;61.03;98061.98;232472;203;138761;-52
2024/04/20 06:57:16;;;;;;;8.60;5.60;;;;;;;10.36;61.36;98068.15;232497;204;154272;-55
2024/04/20 07:02:21;;;;;;;2.30;1.30;;;;;;;10.40;60.97;98068.94;232482;203;137880;-53
2024/04/20 07:07:24;;;;;;;1.70;1.00;;;;;;;10.39;61.15;98071.50;232722;203;137767;-52
2024/04/20 07:12:27;;;;;;;447.50;353.50;;;;;;;10.38;61.31;98077.42;232487;206;153205;-54
2024/04/20 07:17:30;;;;;;;8.90;5.60;;;;;;;10.41;61.80;98079.35;232456;204;137988;-54
2024/04/20 07:22:33;;;;;;;1.40;1.20;;;;;;;10.47;61.87;98087.16;232399;203;137437;-53
2024/04/20 07:27:36;;;;;;;1.50;0.90;;;;;;;10.54;61.62;98092.54;232509;204;153659;-54
2024/04/20 07:32:39;;;;;;;2.00;1.50;;;;;;;10.57;61.87;98094.95;232328;200;142173;-53
2024/04/20 07:37:42;;;;;;;1.20;0.80;;;;;;;10.55;61.72;98102.21;232545;203;138663;-54
2024/04/20 07:42:44;;;;;;;0.80;0.80;;;;;;;10.57;60.73;98106.98;232647;206;153346;-55
2024/04/20 07:47:47;;;;;;;1.00;0.90;;;;;;;10.59;60.98;98109.52;232504;203;137891;-54
2024/04/20 07:52:50;;;;;;;90.20;67.80;;;;;;;10.58;61.76;98111.31;232389;204;137183;-55
2024/04/20 07:57:53;;;;;;;3.40;2.30;;;;;;;10.65;62.39;98115.07;232441;203;153780;-53
2024/04/20 08:02:57;;;;;;;19.70;13.00;;;;;;;10.66;61.63;98118.20;232469;206;138626;-52
2024/04/20 08:08:00;;;;;;;3.20;1.10;;;;;;;10.73;60.80;98124.42;232573;199;138648;-54
2024/04/20 08:13:03;;;;;;;1.20;1.00;;;;;;;10.78;61.26;98125.45;232604;204;153307;-53
2024/04/20 08:18:06;;;;;;;3.10;1.10;;;;;;;10.83;60.82;98130.52;232490;204;138318;-51
2024/04/20 08:23:10;;;;;;;1.90;1.30;;;;;;;10.95;60.75;98126.60;232601;203;137424;-54
2024/04/20 08:28:13;;;;;;;1.50;1.20;;;;;;;11.01;60.47;98131.65;232511;206;153625;-52
2024/04/20 08:33:16;;;;;;;1.00;0.90;;;;;;;11.05;60.60;98134.67;232467;206;137432;-54
2024/04/20 08:38:18;;;;;;;62.70;42.90;;;;;;;11.12;60.46;98134.96;232495;204;137937;-52
2024/04/20 08:43:23;;;;;;;144.50;117.50;;;;;;;11.29;60.11;98134.94;232687;199;153304;-53
2024/04/20 08:48:27;;;;;;;2.10;1.50;;;;;;;11.43;58.95;98138.95;232490;206;138527;-55
2024/04/20 08:53:34;;;;;;;2.30;1.20;;;;;;;11.51;57.25;98139.70;232563;203;137842;-55
2024/04/20 08:58:37;;;;;;;1.80;0.90;;;;;;;11.64;57.01;98142.04;232452;203;152978;-55
2024/04/20 09:03:40;;;;;;;1.30;1.00;;;;;;;11.75;56.54;98141.47;232486;206;137377;-57
2024/04/20 09:08:44;;;;;;;0.90;0.70;;;;;;;11.92;56.24;98143.54;232478;203;137946;-56
2024/04/20 09:13:47;;;;;;;1.30;0.70;;;;;;;12.00;55.22;98145.33;232497;206;153297;-56
2024/04/20 09:18:50;;;;;;;2.60;0.90;;;;;;;12.04;54.92;98150.88;232621;206;139066;-55
2024/04/20 09:24:06;;;;;;;1.10;0.80;;;;;;;12.03;54.24;98154.85;232423;207;137595;-57
2024/04/20 09:29:09;;;;;;;1.00;0.80;;;;;;;11.95;54.25;98163.23;232371;204;153262;-57
2024/04/20 09:34:12;;;;;;;1.00;0.60;;;;;;;11.79;53.77;98175.69;232441;202;139355;-56
2024/04/20 09:39:15;;;;;;;1.10;0.90;;;;;;;11.67;55.10;98179.69;232505;203;137917;-56
2024/04/20 09:44:19;;;;;;;1.50;0.90;;;;;;;11.62;56.75;98186.83;232463;206;152945;-53
2024/04/20 09:49:28;;;;;;;2.30;1.10;;;;;;;11.50;57.17;98190.80;232617;203;136937;-53
2024/04/20 09:54:32;;;;;;;1.90;1.00;;;;;;;11.41;57.44;98196.61;232624;203;138022;-53
2024/04/20 09:59:37;;;;;;;1.10;0.90;;;;;;;11.32;58.16;98204.08;232199;206;153089;-54
2024/04/20 10:04:40;;;;;;;70.80;49.70;;;;;;;11.21;58.97;98206.77;232406;206;137056;-51
2024/04/20 10:09:45;;;;;;;5.70;3.80;;;;;;;11.16;60.04;98204.64;232376;206;139078;-61
2024/04/20 10:14:49;;;;;;;1.40;1.10;;;;;;;11.19;60.97;98207.45;232492;199;153246;-52
2024/04/20 10:19:53;;;;;;;20.20;13.40;;;;;;;11.37;61.92;98209.55;232385;204;138180;-54
2024/04/20 10:25:00;;;;;;;6.60;4.00;;;;;;;11.58;60.02;98213.03;232676;206;137781;-53
2024/04/20 10:30:07;;;;;;;1.80;1.20;;;;;;;11.66;60.24;98207.80;232402;203;153496;-53
2024/04/20 10:35:10;;;;;;;3.10;1.10;;;;;;;11.74;60.05;98215.46;232363;204;140723;-54
2024/04/20 10:40:13;;;;;;;2.20;1.20;;;;;;;11.78;58.37;98223.36;232440;207;137754;-51
2024/04/20 10:45:20;;;;;;;2.80;1.30;;;;;;;11.72;58.43;98229.70;232385;200;153114;-54
2024/04/20 10:50:23;;;;;;;104.60;80.90;;;;;;;11.74;59.53;98230.78;232494;206;137247;-53
2024/04/20 10:55:26;;;;;;;4.80;3.40;;;;;;;11.92;59.56;98231.31;232642;206;138430;-53
2024/04/20 11:00:29;;;;;;;3.60;1.90;;;;;;;12.39;59.87;98225.17;232674;206;153602;-53
2024/04/20 11:05:33;;;;;;;4.20;1.80;;;;;;;12.66;58.27;98225.46;232364;203;137396;-54
2024/04/20 11:10:36;;;;;;;1.80;1.70;;;;;;;12.70;57.84;98232.77;232537;203;137329;-56
2024/04/20 11:15:39;;;;;;;2.30;1.50;;;;;;;12.95;58.11;98230.06;232421;206;154699;-56
2024/04/20 11:20:42;;;;;;;3.00;1.80;;;;;;;13.12;57.71;98231.69;232438;203;137670;-56
2024/04/20 11:25:52;;;;;;;2.10;1.70;;;;;;;13.12;56.35;98232.45;232406;201;138721;-54
2024/04/20 11:30:55;;;;;;;1.60;1.40;;;;;;;13.12;56.79;98231.17;232634;199;152962;-55
2024/04/20 11:35:59;;;;;;;2.20;1.70;;;;;;;13.03;55.27;98240.32;232465;206;138236;-55
2024/04/20 11:41:02;;;;;;;2.30;1.40;;;;;;;12.81;55.09;98254.83;232489;206;138249;-54
2024/04/20 11:46:09;;;;;;;4.90;1.30;;;;;;;12.53;55.35;98266.19;232416;203;160415;-55
2024/04/20 11:56:47;;;;;;;1.70;1.00;;;;;;;11.73;58.22;98299.83;232463;206;138251;-55
2024/04/20 12:01:50;;;;;;;2.70;1.30;;;;;;;11.44;59.33;98311.52;232433;203;154384;-56
2024/04/20 12:06:53;;;;;;;2.20;1.00;;;;;;;11.17;60.43;98319.59;232591;200;137874;-55
2024/04/20 12:11:56;;;;;;;2.70;1.20;;;;;;;10.98;61.53;98321.79;232467;204;136973;-55
2024/04/20 12:16:59;;;;;;;3.80;1.20;;;;;;;10.86;63.17;98313.08;232412;206;153438;-55
2024/04/20 12:22:03;;;;;;;1.10;0.80;;;;;;;10.92;63.85;98304.25;232449;204;137176;-55
2024/04/20 12:27:06;;;;;;;1.00;0.60;;;;;;;11.08;63.96;98303.18;232530;206;138482;-55
2024/04/20 12:32:09;;;;;;;1.70;0.80;;;;;;;11.14;64.01;98308.66;232389;206;153857;-55
2024/04/20 12:37:18;;;;;;;1.10;0.60;;;;;;;11.11;64.64;98312.94;232592;204;137884;-55
2024/04/20 12:42:22;;;;;;;1.40;0.80;;;;;;;11.11;64.98;98317.57;232375;200;140008;-54
2024/04/20 12:47:25;;;;;;;1.60;0.80;;;;;;;11.11;65.14;98321.31;232409;203;153371;-55
2024/04/20 12:52:28;;;;;;;1.30;0.80;;;;;;;11.05;65.28;98323.20;232427;206;137813;-55
2024/04/20 12:57:31;;;;;;;2.90;1.00;;;;;;;10.97;64.94;98337.95;232461;204;138029;-55
2024/04/20 13:02:34;;;;;;;1.80;1.10;;;;;;;10.95;64.05;98346.46;232408;203;152769;-57
2024/04/20 13:07:37;;;;;;;2.90;1.20;;;;;;;11.00;65.05;98343.42;232412;206;138712;-55
2024/04/20 13:12:40;;;;;;;1.90;1.00;;;;;;;11.08;65.34;98346.23;232594;206;137744;-55
2024/04/20 13:17:43;;;;;;;2.20;1.10;;;;;;;11.29;65.11;98342.86;232404;206;153198;-55
2024/04/20 13:22:46;;;;;;;3.40;1.10;;;;;;;11.62;65.12;98344.02;232449;200;137927;-55
2024/04/20 13:27:49;;;;;;;1.50;1.20;;;;;;;12.04;63.90;98344.30;232550;199;137980;-56
2024/04/20 13:32:54;;;;;;;1.20;0.80;;;;;;;12.24;62.10;98343.60;232504;203;153224;-55
2024/04/20 13:38:12;;;;;;;1.90;1.00;;;;;;;12.25;60.40;98349.61;232401;203;138487;-53
2024/04/20 13:43:15;;;;;;;1.20;0.90;;;;;;;12.29;59.33;98351.58;232549;203;137708;-53
2024/04/20 13:48:19;;;;;;;0.90;0.80;;;;;;;12.26;58.57;98355.73;232402;203;152951;-53
2024/04/20 13:53:23;;;;;;;1.40;1.00;;;;;;;12.15;57.66;98366.03;232502;203;137568;-51
2024/04/20 13:58:27;;;;;;;1.40;1.10;;;;;;;12.06;57.43;98370.42;232423;203;138009;-55
2024/04/20 14:03:31;;;;;;;1.10;1.00;;;;;;;12.00;56.85;98375.70;232404;202;154011;-56
2024/04/20 14:08:36;;;;;;;2.20;1.60;;;;;;;12.00;56.76;98369.67;232350;204;138787;-54
2024/04/20 14:13:42;;;;;;;2.50;0.90;;;;;;;12.08;57.09;98369.43;232484;203;137311;-55
2024/04/20 14:18:46;;;;;;;1.20;1.00;;;;;;;12.26;56.31;98365.66;232574;206;153541;-55
2024/04/20 14:23:49;;;;;;;1.50;0.80;;;;;;;12.33;56.25;98365.84;232454;204;137779;-53
2024/04/20 14:28:52;;;;;;;0.80;0.60;;;;;;;12.40;55.11;98370.48;232491;203;137222;-55
2024/04/20 14:33:55;;;;;;;1.60;0.80;;;;;;;12.56;54.81;98378.63;232477;204;153217;-55
2024/04/20 14:38:59;;;;;;;1.00;0.80;;;;;;;12.55;54.74;98383.46;232477;206;137937;-54
2024/04/20 14:44:02;;;;;;;1.90;1.10;;;;;;;12.55;54.84;98379.39;232421;206;138046;-52
2024/04/20 14:49:05;;;;;;;1.40;0.80;;;;;;;12.54;54.98;98386.18;232517;203;153433;-52
2024/04/20 14:54:07;;;;;;;1.10;0.90;;;;;;;12.54;54.01;98391.86;232387;200;139277;-52
2024/04/20 14:59:10;;;;;;;1.30;1.10;;;;;;;12.50;53.50;98395.80;232414;206;138018;-50
2024/04/20 15:04:13;;;;;;;1.40;1.00;;;;;;;12.43;53.98;98398.64;232309;206;154043;-52
2024/04/20 15:09:16;;;;;;;1.70;1.10;;;;;;;12.32;54.55;98405.95;232377;203;138212;-53
2024/04/20 15:14:19;;;;;;;2.30;1.20;;;;;;;12.18;54.93;98408.64;232428;203;139186;-49
2024/04/20 15:19:22;;;;;;;4.10;1.70;;;;;;;12.11;55.91;98416.72;232693;202;154480;-52
2024/04/20 15:24:25;;;;;;;2.80;1.70;;;;;;;12.00;56.47;98419.52;232408;204;137934;-52
2024/04/20 15:29:28;;;;;;;1.90;1.50;;;;;;;11.87;57.23;98424.98;232340;206;138042;-52
2024/04/20 15:34:31;;;;;;;2.20;1.80;;;;;;;11.74;57.82;98430.38;232455;203;153633;-50
2024/04/20 15:39:34;;;;;;;2.70;1.50;;;;;;;11.61;58.22;98429.73;232423;204;155022;-50
2024/04/20 15:44:37;;;;;;;1.50;1.30;;;;;;;11.53;59.01;98427.33;232416;204;138088;-51
2024/04/20 15:49:40;;;;;;;2.10;1.50;;;;;;;11.47;59.54;98429.04;232403;206;153198;-51
2024/04/20 15:54:43;;;;;;;3.80;2.30;;;;;;;11.40;60.02;98434.35;232608;206;141750;-52
2024/04/20 15:59:46;;;;;;;1.70;1.40;;;;;;;11.40;60.14;98436.00;232480;203;138663;-51
2024/04/20 16:04:50;;;;;;;2.00;1.50;;;;;;;11.40;60.55;98439.02;232528;207;153488;-50
2024/04/20 16:09:53;;;;;;;2.90;1.70;;;;;;;11.44;60.24;98440.25;232411;203;138022;-52
2024/04/20 16:14:56;;;;;;;3.90;2.60;;;;;;;11.42;60.62;98445.59;232551;203;136928;-51
2024/04/20 16:19:59;;;;;;;3.10;2.20;;;;;;;11.38;60.79;98454.42;232411;204;153789;-51
2024/04/20 16:25:03;;;;;;;2.40;1.90;;;;;;;11.35;60.73;98463.84;232628;204;137248;-52
2024/04/20 16:30:06;;;;;;;3.20;1.90;;;;;;;11.34;60.78;98466.60;232418;204;138574;-51
2024/04/20 16:35:09;;;;;;;3.80;2.40;;;;;;;11.33;60.73;98464.72;232431;207;152973;-52
2024/04/20 16:40:12;;;;;;;3.60;2.20;;;;;;;11.33;60.71;98472.02;232458;203;137711;-52
2024/04/20 16:45:15;;;;;;;2.60;2.00;;;;;;;11.28;60.75;98474.30;232494;203;138193;-52
2024/04/20 16:50:18;;;;;;;3.60;2.30;;;;;;;11.22;60.78;98478.83;232458;199;154375;-53
2024/04/20 16:55:22;;;;;;;3.40;2.40;;;;;;;11.15;61.05;98485.38;232546;204;137162;-53
2024/04/20 17:00:25;;;;;;;4.60;2.40;;;;;;;11.11;61.27;98492.40;232402;203;137084;-53
2024/04/20 17:05:28;;;;;;;2.90;2.30;;;;;;;11.06;61.20;98498.83;232326;204;153192;-53
2024/04/20 17:10:31;;;;;;;2.90;2.00;;;;;;;11.02;61.29;98501.83;232392;203;138074;-51
2024/04/20 17:15:34;;;;;;;4.80;2.40;;;;;;;11.00;61.34;98506.19;232512;206;137876;-50
2024/04/20 17:20:37;;;;;;;4.40;2.60;;;;;;;10.96;61.69;98507.38;232462;203;153352;-52
2024/04/20 17:25:40;;;;;;;4.40;2.60;;;;;;;10.91;61.88;98513.64;232410;203;138204;-51
2024/04/20 17:30:43;;;;;;;6.30;4.00;;;;;;;10.87;61.84;98516.86;232699;206;137319;-51
2024/04/20 17:35:46;;;;;;;2.60;2.20;;;;;;;10.80;61.62;98524.67;232394;206;158215;-52
2024/04/20 17:40:53;;;;;;;3.70;2.60;;;;;;;10.69;62.41;98538.40;232376;203;138128;-54
2024/04/20 17:46:06;;;;;;;6.10;3.10;;;;;;;10.62;63.06;98548.62;232344;203;138695;-54
2024/04/20 17:51:15;;;;;;;6.70;4.10;;;;;;;10.58;63.33;98557.60;232324;206;153204;-54
2024/04/20 17:56:18;;;;;;;5.10;3.60;;;;;;;10.56;64.09;98568.55;232326;207;138402;-55
2024/04/20 18:01:21;;;;;;;5.00;2.40;;;;;;;10.58;64.00;98575.52;232620;203;137957;-57
2024/04/20 18:06:24;;;;;;;3.60;2.40;;;;;;;10.61;63.69;98585.98;232425;199;159255;-55
2024/04/20 18:11:27;;;;;;;3.10;2.60;;;;;;;10.62;63.76;98596.56;232371;206;138214;-54
2024/04/20 18:16:30;;;;;;;4.00;2.60;;;;;;;10.61;64.01;98605.67;232350;206;138344;-54
2024/04/20 18:21:32;;;;;;;4.10;2.50;;;;;;;10.60;64.15;98613.55;232426;203;153996;-52
2024/04/20 18:26:35;;;;;;;3.50;2.50;;;;;;;10.58;64.28;98620.59;232416;203;137993;-52
2024/04/20 18:31:41;;;;;;;4.00;2.70;;;;;;;10.50;64.40;98631.80;232424;202;137649;-54
2024/04/20 18:36:46;;;;;;;4.00;2.80;;;;;;;10.43;64.73;98637.75;232548;206;154823;-54
2024/04/20 18:41:49;;;;;;;3.50;2.60;;;;;;;10.38;64.89;98649.06;232432;206;138198;-54
2024/04/20 18:46:52;;;;;;;4.10;2.90;;;;;;;10.31;65.35;98653.31;232490;206;138497;-54
2024/04/20 18:51:56;;;;;;;4.10;3.10;;;;;;;10.24;65.67;98657.08;232502;203;153735;-54
2024/04/20 18:56:58;;;;;;;4.10;3.00;;;;;;;10.12;66.13;98666.38;232391;200;137798;-53
2024/04/20 19:02:02;;;;;;;8.10;3.40;;;;;;;10.02;66.60;98673.97;232322;206;137963;-53
2024/04/20 19:07:05;;;;;;;5.20;3.30;;;;;;;10.00;66.88;98684.91;232633;206;155339;-52
2024/04/20 19:12:08;;;;;;;4.30;2.90;;;;;;;10.05;66.30;98690.11;232562;202;137323;-54
2024/04/20 19:17:11;;;;;;;4.20;2.70;;;;;;;10.11;66.02;98690.56;232473;200;138896;-54
2024/04/20 19:22:14;;;;;;;4.10;2.10;;;;;;;10.10;65.31;98696.65;232516;206;154011;-54
2024/04/20 19:27:17;;;;;;;2.30;1.60;;;;;;;10.02;64.60;98697.02;232491;204;137889;-54
2024/04/20 19:32:20;;;;;;;3.50;1.70;;;;;;;9.91;63.93;98701.80;232542;206;140214;-54
2024/04/20 19:37:24;;;;;;;2.70;1.80;;;;;;;9.85;63.93;98708.95;232606;206;153191;-54
2024/04/20 19:42:27;;;;;;;3.60;2.00;;;;;;;9.75;64.04;98710.80;232536;200;137485;-54
2024/04/20 19:47:30;;;;;;;2.60;1.90;;;;;;;9.66;64.34;98714.01;232496;204;138297;-53
2024/04/20 19:52:33;;;;;;;3.20;2.30;;;;;;;9.58;64.66;98718.63;232550;203;153781;-53
2024/04/20 19:57:36;;;;;;;4.30;2.80;;;;;;;9.52;64.88;98716.02;232564;206;138138;-52
2024/04/20 20:02:39;;;;;;;3.60;2.90;;;;;;;9.48;64.58;98715.86;232633;203;137286;-53
2024/04/20 20:07:42;;;;;;;4.10;2.80;;;;;;;9.43;64.64;98719.56;232352;203;152977;-53
2024/04/20 20:12:45;;;;;;;3.50;2.90;;;;;;;9.36;65.00;98725.14;232547;199;138221;-53
2024/04/20 20:17:48;;;;;;;3.30;2.60;;;;;;;9.29;65.09;98732.45;232546;203;137911;-52
2024/04/20 20:22:51;;;;;;;3.40;2.90;;;;;;;9.25;65.32;98738.39;232551;206;153564;-53
2024/04/20 20:27:57;;;;;;;;;;;;;;;9.19;65.38;98738.20;232492;206;137714;-53
2024/04/20 20:33:00;;;;;;;4.10;3.00;;;;;;;9.18;65.47;98736.52;232501;199;139920;-54
2024/04/20 20:38:03;;;;;;;4.20;2.80;;;;;;;9.16;65.33;98742.66;232502;204;154355;-53
2024/04/20 20:43:06;;;;;;;5.00;3.00;;;;;;;9.13;65.57;98748.48;232600;203;138079;-52
2024/04/20 20:48:09;;;;;;;4.90;2.90;;;;;;;9.17;65.79;98750.02;232512;203;137755;-53
2024/04/20 20:53:12;;;;;;;3.50;2.90;;;;;;;9.26;65.87;98754.63;232426;206;153832;-54
2024/04/20 20:58:15;;;;;;;5.80;3.50;;;;;;;9.32;65.81;98756.56;232395;203;137321;-52
2024/04/20 21:03:19;;;;;;;5.00;4.00;;;;;;;9.35;65.64;98757.44;232513;203;138025;-53
2024/04/20 21:08:26;;;;;;;4.50;3.40;;;;;;;9.37;65.56;98758.16;232480;199;153419;-52
2024/04/20 21:13:31;;;;;;;5.10;3.60;;;;;;;9.35;65.54;98759.86;232611;204;137866;-51
2024/04/20 21:18:35;;;;;;;5.40;3.70;;;;;;;9.29;65.44;98767.20;232696;203;138255;-51
2024/04/20 21:23:47;;;;;;;4.50;3.40;;;;;;;9.22;65.49;98769.02;232467;203;153458;-51
2024/04/20 21:28:52;;;;;;;4.90;3.40;;;;;;;9.16;65.61;98768.99;232351;204;137581;-51
2024/04/20 21:33:59;;;;;;;4.70;3.70;;;;;;;9.11;65.45;98772.86;232524;203;136802;-53
2024/04/20 21:39:05;;;;;;;4.40;3.10;;;;;;;9.06;65.71;98779.02;232425;207;157776;-52
2024/04/20 21:44:08;;;;;;;4.70;2.90;;;;;;;9.05;65.84;98781.71;232513;203;138259;-53
2024/04/20 21:49:11;;;;;;;4.40;2.90;;;;;;;9.03;65.74;98782.02;232693;206;139389;-53
2024/04/20 21:54:14;;;;;;;3.30;2.70;;;;;;;8.98;65.56;98777.02;232575;206;154689;-53
2024/04/20 21:59:17;;;;;;;4.00;2.70;;;;;;;8.94;65.43;98779.01;232415;206;137458;-54
2024/04/20 22:04:20;;;;;;;3.10;2.60;;;;;;;8.88;65.46;98780.09;232407;203;137404;-53
2024/04/20 22:09:23;;;;;;;2.80;2.10;;;;;;;8.84;65.34;98784.59;232441;203;153884;-52
2024/04/20 22:14:26;;;;;;;2.90;2.50;;;;;;;8.81;65.43;98786.38;232430;206;137891;-52
2024/04/20 22:19:29;;;;;;;3.70;2.30;;;;;;;8.73;65.40;98788.57;232609;203;138169;-53
2024/04/20 22:24:32;;;;;;;2.70;2.20;;;;;;;8.69;65.46;98792.18;232428;206;153389;-53
2024/04/20 22:29:35;;;;;;;3.00;2.50;;;;;;;8.67;65.52;98792.80;232402;206;137923;-54
2024/04/20 22:34:38;;;;;;;3.10;2.60;;;;;;;8.70;65.57;98791.21;232346;206;137977;-54
2024/04/20 22:39:41;;;;;;;3.10;2.50;;;;;;;8.73;65.39;98793.19;232358;206;153185;-53
2024/04/20 22:44:44;;;;;;;3.00;2.60;;;;;;;8.72;65.25;98805.45;232308;206;137960;-52
2024/04/20 22:49:47;;;;;;;5.60;2.90;;;;;;;8.68;65.00;98802.13;232345;203;137906;-53
2024/04/20 22:54:50;;;;;;;3.10;2.60;;;;;;;8.58;64.67;98805.53;232476;199;154196;-54
2024/04/20 22:59:53;;;;;;;4.50;2.40;;;;;;;8.46;64.82;98814.85;232254;206;136834;-54
2024/04/20 23:04:56;;;;;;;2.80;2.40;;;;;;;8.42;64.79;98819.88;232422;203;140220;-54
2024/04/20 23:09:59;;;;;;;2.80;2.00;;;;;;;8.33;64.65;98824.75;232377;204;153149;-54
2024/04/20 23:15:03;;;;;;;2.70;1.80;;;;;;;8.25;64.57;98821.48;232361;199;137897;-53
2024/04/20 23:20:06;;;;;;;2.50;2.10;;;;;;;8.20;64.67;98823.39;232479;203;137619;-51
2024/04/20 23:25:09;;;;;;;3.00;2.20;;;;;;;8.15;64.59;98827.01;232583;206;152953;-51
2024/04/20 23:30:12;;;;;;;2.50;2.10;;;;;;;8.08;64.47;98824.94;232431;204;137652;-51
2024/04/20 23:35:15;;;;;;;3.80;2.40;;;;;;;8.00;64.39;98826.23;232494;206;138615;-50
2024/04/20 23:40:18;;;;;;;5.00;2.30;;;;;;;7.94;64.56;98824.33;232417;203;153165;-52